Time;durP1;ratioP1;P1;durP2;ratioP2;P2;SDS_P1;SDS_P2;PMS_P1;PMS_P2;Temp;Humidity;BMP_temperature;BMP_pressure;BME280_temperature;BME280_humidity;BME280_pressure;Samples;Min_cycle;Max_cycle;Signal;HPM_P1;HPM_P2
2021/12/01 00:00:35;;;;;;;0.93;0.52;;;9.00;99.90;;;;;;4957060;28;20167;-57
2021/12/01 00:03:01;;;;;;;1.33;0.65;;;9.00;99.90;;;;;;4956115;28;20019;-57
2021/12/01 00:05:29;;;;;;;0.93;0.63;;;9.00;99.90;;;;;;4955050;29;20107;-54
2021/12/01 00:07:56;;;;;;;0.88;0.30;;;9.00;99.90;;;;;;4956608;28;20031;-53
2021/12/01 00:10:24;;;;;;;1.27;0.50;;;9.00;99.90;;;;;;4955424;29;20051;-57
2021/12/01 00:12:50;;;;;;;0.45;0.40;;;9.00;99.90;;;;;;4955286;29;20027;-55
2021/12/01 00:15:17;;;;;;;0.10;0.10;;;9.00;99.90;;;;;;4956513;28;20023;-57
2021/12/01 00:17:42;;;;;;;0.32;0.20;;;9.00;99.90;;;;;;4956260;29;20045;-57
2021/12/01 00:20:14;;;;;;;0.10;0.10;;;9.00;99.90;;;;;;4955104;28;20098;-57
2021/12/01 00:22:40;;;;;;;0.50;0.30;;;9.00;99.90;;;;;;4955253;29;20114;-51
2021/12/01 00:25:08;;;;;;;0.35;0.20;;;9.00;99.90;;;;;;4955126;29;20032;-54
2021/12/01 00:27:34;;;;;;;0.25;0.22;;;9.00;99.90;;;;;;4972000;28;20058;-56
2021/12/01 00:30:00;;;;;;;2.80;0.70;;;9.00;99.90;;;;;;4956096;28;20058;-55
2021/12/01 00:32:26;;;;;;;0.30;0.20;;;9.00;99.90;;;;;;4954957;29;20034;-55
2021/12/01 00:34:52;;;;;;;0.30;0.30;;;9.00;99.90;;;;;;4954853;29;20035;-56
2021/12/01 00:37:18;;;;;;;0.10;0.10;;;9.10;99.90;;;;;;4954962;29;20028;-54
2021/12/01 00:39:44;;;;;;;0.57;0.57;;;9.10;99.90;;;;;;4956209;28;20081;-53
2021/12/01 00:42:11;;;;;;;0.60;0.60;;;9.10;99.90;;;;;;4954835;29;20028;-57
2021/12/01 00:44:36;;;;;;;0.57;0.57;;;9.00;99.90;;;;;;4956278;28;20062;-55
2021/12/01 00:49:35;;;;;;;0.52;0.52;;;9.00;99.90;;;;;;4956153;28;20042;-58
2021/12/01 00:52:02;;;;;;;0.30;0.30;;;9.00;99.90;;;;;;4954646;29;20038;-54
2021/12/01 00:54:28;;;;;;;2.05;0.20;;;9.00;99.90;;;;;;4954645;29;20027;-56
2021/12/01 00:56:54;;;;;;;0.65;0.40;;;9.10;99.90;;;;;;4954561;29;20103;-53
2021/12/01 00:59:20;;;;;;;0.30;0.30;;;9.00;99.90;;;;;;4955613;28;20078;-56
2021/12/01 01:01:46;;;;;;;0.80;0.43;;;9.10;99.90;;;;;;4954482;29;20031;-56
2021/12/01 01:04:12;;;;;;;0.50;0.40;;;9.10;99.90;;;;;;4954491;29;20066;-57
2021/12/01 01:06:38;;;;;;;0.55;0.40;;;9.10;99.90;;;;;;4955573;28;20027;-57
2021/12/01 01:09:06;;;;;;;1.15;0.40;;;9.10;99.90;;;;;;4954245;28;20027;-53
2021/12/01 01:17:02;;;;;;;0.10;0.10;;;9.30;99.90;;;;;;4955783;29;20042;-57
2021/12/01 01:19:28;;;;;;;0.30;0.30;;;9.20;99.90;;;;;;4954413;28;20027;-57
2021/12/01 01:21:55;;;;;;;0.20;0.20;;;9.10;99.90;;;;;;4954093;29;20078;-58
2021/12/01 01:24:21;;;;;;;0.20;0.20;;;9.30;99.90;;;;;;4955643;28;20023;-57
2021/12/01 01:26:48;;;;;;;0.20;0.20;;;9.30;99.90;;;;;;4954410;29;20074;-58
2021/12/01 01:29:14;;;;;;;0.22;0.22;;;9.30;99.90;;;;;;4955353;28;20027;-57
2021/12/01 01:31:40;;;;;;;0.80;0.40;;;9.30;99.90;;;;;;4954486;29;20415;-58
2021/12/01 01:34:06;;;;;;;0.30;0.30;;;9.30;99.90;;;;;;4955467;28;20102;-59
2021/12/01 01:36:32;;;;;;;0.30;0.25;;;9.30;99.90;;;;;;4954000;29;20057;-58
2021/12/01 01:38:58;;;;;;;0.68;0.68;;;9.20;99.90;;;;;;4953875;28;20036;-59
2021/12/01 01:41:24;;;;;;;0.60;0.60;;;9.20;99.90;;;;;;4955216;28;20083;-58
2021/12/01 01:43:51;;;;;;;0.40;0.40;;;9.10;99.90;;;;;;4955590;29;20024;-59
2021/12/01 01:46:17;;;;;;;0.50;0.40;;;9.10;99.90;;;;;;4954779;29;20124;-59
2021/12/01 01:48:53;;;;;;;0.43;0.40;;;9.10;99.90;;;;;;4955735;28;20477;-58
2021/12/01 01:51:22;;;;;;;0.50;0.50;;;9.10;99.90;;;;;;4954431;28;20031;-59
2021/12/01 01:53:51;;;;;;;0.70;0.70;;;9.10;99.90;;;;;;4953850;29;20073;-58
2021/12/01 01:56:17;;;;;;;0.98;0.68;;;9.10;99.90;;;;;;4953808;29;20038;-58
2021/12/01 01:58:43;;;;;;;1.42;0.50;;;9.10;99.90;;;;;;4954995;28;20028;-57
2021/12/01 02:01:44;;;;;;;1.08;0.40;;;9.00;99.90;;;;;;4955097;29;20035;-58
2021/12/01 02:04:03;;;;;;;0.40;0.40;;;9.00;99.90;;;;;;4955371;28;20378;-59
2021/12/01 02:06:28;;;;;;;0.38;0.35;;;9.00;99.90;;;;;;4954578;28;20027;-58
2021/12/01 02:08:57;;;;;;;1.67;0.85;;;9.00;99.90;;;;;;4953678;28;20027;-59
2021/12/01 02:11:23;;;;;;;0.30;0.30;;;9.00;99.90;;;;;;4955012;28;20024;-59
2021/12/01 02:13:50;;;;;;;0.70;0.60;;;9.00;99.90;;;;;;4953781;29;20023;-52
2021/12/01 02:16:17;;;;;;;0.50;0.50;;;9.00;99.90;;;;;;4954948;28;20039;-54
2021/12/01 02:18:43;;;;;;;0.85;0.80;;;9.00;99.90;;;;;;4953541;28;20024;-58
2021/12/01 02:21:13;;;;;;;1.98;0.55;;;9.00;99.90;;;;;;4953969;29;20086;-57
2021/12/01 02:23:43;;;;;;;0.60;0.55;;;9.00;99.90;;;;;;4953523;29;20023;-57
2021/12/01 02:26:09;;;;;;;0.95;0.80;;;9.00;99.90;;;;;;4953688;28;20019;-54
2021/12/01 02:28:36;;;;;;;0.77;0.40;;;9.00;99.90;;;;;;4956180;28;20027;-53
2021/12/01 02:31:03;;;;;;;1.05;0.40;;;9.10;99.90;;;;;;4957777;29;20054;-58
2021/12/01 02:33:29;;;;;;;0.70;0.50;;;9.10;99.90;;;;;;4957161;29;20027;-53
2021/12/01 02:35:54;;;;;;;0.77;0.70;;;9.10;99.90;;;;;;4957156;29;20035;-55
2021/12/01 02:38:20;;;;;;;0.38;0.38;;;9.00;99.90;;;;;;4957534;28;20031;-54
2021/12/01 02:40:47;;;;;;;0.57;0.50;;;9.10;99.90;;;;;;4957292;29;20391;-54
2021/12/01 02:43:12;;;;;;;1.02;0.32;;;9.00;99.90;;;;;;4956982;29;20031;-55
2021/12/01 02:45:41;;;;;;;8.10;3.40;;;9.10;99.90;;;;;;4957963;29;20351;-55
2021/12/01 02:48:10;;;;;;;0.68;0.43;;;9.00;99.90;;;;;;4958018;28;20019;-55
2021/12/01 02:50:35;;;;;;;1.08;0.57;;;9.00;99.90;;;;;;4956802;29;20035;-56
2021/12/01 02:53:01;;;;;;;0.90;0.40;;;9.10;99.90;;;;;;4956838;29;20026;-55
2021/12/01 02:55:29;;;;;;;0.70;0.52;;;9.10;99.90;;;;;;4957915;29;20050;-55
2021/12/01 02:57:55;;;;;;;1.45;0.88;;;9.20;99.90;;;;;;4972786;28;20030;-54
2021/12/01 03:00:23;;;;;;;0.47;0.32;;;9.30;99.90;;;;;;4958206;28;20034;-58
2021/12/01 03:02:51;;;;;;;3.33;1.45;;;9.30;99.90;;;;;;4957907;28;20023;-57
2021/12/01 03:05:17;;;;;;;0.40;0.32;;;9.20;99.90;;;;;;4956576;29;20027;-54
2021/12/01 03:07:44;;;;;;;0.30;0.28;;;9.30;99.90;;;;;;4957715;28;20033;-55
2021/12/01 03:10:10;;;;;;;0.40;0.40;;;9.20;99.90;;;;;;4956471;28;20126;-57
2021/12/01 03:12:37;;;;;;;0.25;0.20;;;9.20;99.90;;;;;;4956974;29;20035;-57
2021/12/01 03:15:05;;;;;;;0.32;0.30;;;9.20;99.90;;;;;;4956420;29;20118;-56
2021/12/01 03:17:32;;;;;;;0.80;0.55;;;9.30;99.90;;;;;;4956708;29;20082;-58
2021/12/01 03:19:58;;;;;;;1.30;0.45;;;9.30;99.90;;;;;;4956187;28;20059;-55
2021/12/01 03:22:24;;;;;;;0.52;0.40;;;9.20;99.90;;;;;;4957614;28;20023;-56
2021/12/01 03:24:51;;;;;;;1.17;0.45;;;9.30;99.90;;;;;;4956212;29;20027;-57
2021/12/01 03:27:17;;;;;;;0.90;0.50;;;9.30;99.90;;;;;;4957430;28;20355;-58
2021/12/01 03:29:46;;;;;;;0.40;0.38;;;9.40;99.90;;;;;;4957367;28;20019;-53
2021/12/01 03:32:13;;;;;;;0.43;0.35;;;9.40;99.90;;;;;;4956137;29;20033;-58
2021/12/01 03:34:40;;;;;;;1.15;0.40;;;9.30;99.90;;;;;;4957354;28;20023;-59
2021/12/01 03:37:06;;;;;;;0.28;0.28;;;9.40;99.90;;;;;;4957262;28;20035;-58
2021/12/01 03:39:32;;;;;;;0.30;0.30;;;9.40;99.90;;;;;;4955571;28;20031;-58
2021/12/01 03:41:58;;;;;;;0.47;0.40;;;9.40;99.90;;;;;;4955922;28;20486;-59
2021/12/01 03:44:24;;;;;;;0.30;0.30;;;9.40;99.90;;;;;;4957315;28;20047;-59
2021/12/01 03:46:51;;;;;;;0.40;0.40;;;9.30;99.90;;;;;;4958038;29;20023;-57
2021/12/01 03:49:16;;;;;;;0.57;0.45;;;9.40;99.90;;;;;;4955732;28;20123;-53
2021/12/01 03:51:42;;;;;;;0.77;0.50;;;9.40;99.90;;;;;;4955996;29;20090;-57
2021/12/01 03:54:08;;;;;;;0.40;0.30;;;9.40;99.90;;;;;;4955936;29;20019;-52
2021/12/01 03:56:34;;;;;;;2.28;0.50;;;9.30;99.90;;;;;;4956959;28;20061;-54
2021/12/01 03:59:00;;;;;;;0.43;0.30;;;9.20;99.90;;;;;;4955498;28;20394;-57
2021/12/01 04:01:26;;;;;;;0.30;0.30;;;9.10;99.90;;;;;;4956806;28;20102;-55
2021/12/01 04:03:52;;;;;;;0.25;0.25;;;9.20;99.90;;;;;;4956201;29;20055;-53
2021/12/01 04:06:18;;;;;;;0.25;0.25;;;9.20;99.90;;;;;;4955484;29;20027;-53
2021/12/01 04:08:44;;;;;;;0.43;0.40;;;9.30;99.90;;;;;;4955402;28;20031;-52
2021/12/01 04:11:09;;;;;;;0.13;0.13;;;9.20;99.90;;;;;;4956685;28;20086;-55
2021/12/01 04:13:35;;;;;;;0.55;0.20;;;9.30;99.90;;;;;;4956636;28;20035;-57
2021/12/01 04:16:01;;;;;;;0.13;0.13;;;9.20;99.90;;;;;;4956528;29;20038;-52
2021/12/01 04:18:27;;;;;;;0.25;0.22;;;9.30;99.90;;;;;;4956294;28;20070;-51
2021/12/01 04:20:53;;;;;;;0.30;0.20;;;9.30;99.90;;;;;;4956435;29;20071;-56
2021/12/01 04:23:19;;;;;;;0.28;0.28;;;9.20;99.90;;;;;;4955167;29;20024;-56
2021/12/01 04:25:44;;;;;;;0.20;0.20;;;9.20;99.90;;;;;;4956366;28;20026;-54
2021/12/01 04:28:10;;;;;;;0.55;0.20;;;9.20;99.90;;;;;;4956518;28;20151;-57
2021/12/01 04:30:35;;;;;;;0.60;0.20;;;9.20;99.90;;;;;;4955105;29;20121;-56
2021/12/01 04:33:01;;;;;;;0.35;0.20;;;9.10;99.90;;;;;;4956226;29;20027;-53
2021/12/01 04:35:28;;;;;;;1.00;0.20;;;9.10;99.90;;;;;;4955196;29;20034;-55
2021/12/01 04:37:54;;;;;;;2.55;0.30;;;9.20;99.90;;;;;;4956037;28;20042;-56
2021/12/01 04:40:21;;;;;;;0.20;0.20;;;9.10;99.90;;;;;;4956513;28;20027;-58
2021/12/01 04:42:47;;;;;;;0.40;0.30;;;9.10;99.90;;;;;;4954765;29;20019;-57
2021/12/01 04:45:14;;;;;;;0.40;0.35;;;9.00;99.90;;;;;;4955998;28;20031;-55
2021/12/01 04:48:00;;;;;;;0.57;0.30;;;8.90;99.90;;;;;;4954718;29;20074;-55
2021/12/01 04:50:27;;;;;;;1.13;0.40;;;9.00;99.90;;;;;;4955581;28;20043;-57
2021/12/01 04:52:57;;;;;;;0.80;0.60;;;9.00;99.90;;;;;;4956116;28;20027;-56
2021/12/01 04:55:24;;;;;;;2.08;0.70;;;8.90;99.90;;;;;;4955903;28;20023;-55
2021/12/01 04:57:50;;;;;;;0.63;0.40;;;9.00;99.90;;;;;;4954871;29;20028;-53
2021/12/01 05:00:20;;;;;;;0.60;0.45;;;8.80;99.90;;;;;;4954295;28;20031;-54
2021/12/01 05:02:46;;;;;;;0.40;0.40;;;8.90;99.90;;;;;;4954481;29;20086;-54
2021/12/01 05:05:11;;;;;;;0.90;0.30;;;8.90;99.90;;;;;;4955055;29;20023;-56
2021/12/01 05:07:37;;;;;;;2.38;0.40;;;9.00;99.90;;;;;;4954379;29;20106;-55
2021/12/01 05:10:04;;;;;;;1.83;0.50;;;8.90;99.90;;;;;;4954261;28;20035;-59
2021/12/01 05:12:30;;;;;;;0.63;0.55;;;9.00;99.90;;;;;;4955600;28;20050;-59
2021/12/01 05:14:56;;;;;;;0.63;0.50;;;9.00;99.90;;;;;;4955156;29;20038;-58
2021/12/01 05:17:21;;;;;;;0.32;0.30;;;8.90;99.90;;;;;;4954267;29;20035;-59
2021/12/01 05:19:48;;;;;;;0.57;0.47;;;8.90;99.90;;;;;;4954474;28;20473;-58
2021/12/01 05:22:14;;;;;;;0.57;0.57;;;8.80;99.90;;;;;;4955428;29;20023;-55
2021/12/01 05:24:40;;;;;;;0.80;0.50;;;8.60;99.90;;;;;;4955724;28;20079;-56
2021/12/01 05:27:06;;;;;;;0.20;0.20;;;8.50;99.90;;;;;;4955425;28;20119;-59
2021/12/01 05:29:31;;;;;;;0.38;0.38;;;8.60;99.90;;;;;;4954043;28;20023;-58
2021/12/01 05:31:57;;;;;;;0.50;0.50;;;8.60;99.90;;;;;;4954392;29;20121;-58
2021/12/01 05:34:24;;;;;;;1.25;0.60;;;8.60;99.90;;;;;;4954609;29;20117;-58
2021/12/01 05:36:51;;;;;;;0.40;0.40;;;8.70;99.90;;;;;;4954321;29;20020;-59
2021/12/01 05:39:17;;;;;;;3.83;0.70;;;8.80;99.90;;;;;;4953790;28;20043;-59
2021/12/01 05:41:43;;;;;;;0.35;0.35;;;8.80;99.90;;;;;;4955373;28;20070;-58
2021/12/01 05:44:09;;;;;;;0.68;0.47;;;8.70;99.90;;;;;;4956272;28;20031;-56
2021/12/01 05:46:35;;;;;;;0.73;0.45;;;8.60;99.90;;;;;;4954222;29;20020;-52
2021/12/01 05:49:01;;;;;;;0.77;0.40;;;8.70;99.90;;;;;;4955119;28;20086;-56
2021/12/01 05:51:26;;;;;;;0.65;0.55;;;8.60;99.90;;;;;;4955377;28;20042;-57
2021/12/01 05:53:52;;;;;;;1.48;0.63;;;8.60;99.90;;;;;;4955379;29;20027;-56
2021/12/01 05:56:18;;;;;;;0.88;0.80;;;8.60;99.90;;;;;;4953788;29;20023;-53
2021/12/01 05:58:43;;;;;;;0.85;0.60;;;8.70;99.90;;;;;;4953644;28;20031;-56
2021/12/01 06:01:09;;;;;;;0.65;0.65;;;8.70;99.90;;;;;;4954573;28;20023;-54
2021/12/01 06:03:35;;;;;;;0.55;0.50;;;8.60;99.90;;;;;;4958841;29;20028;-55
2021/12/01 06:06:00;;;;;;;1.00;0.50;;;8.70;99.90;;;;;;4959166;29;20023;-56
2021/12/01 06:08:26;;;;;;;0.60;0.60;;;8.80;99.90;;;;;;4958756;28;20035;-52
2021/12/01 06:10:52;;;;;;;0.50;0.50;;;8.80;99.90;;;;;;4959130;28;20027;-55
2021/12/01 06:13:20;;;;;;;0.82;0.40;;;8.90;99.90;;;;;;4958740;29;20029;-54
2021/12/01 06:15:49;;;;;;;0.77;0.43;;;8.90;99.90;;;;;;4957569;29;20031;-56
2021/12/01 06:18:15;;;;;;;0.50;0.50;;;8.90;99.90;;;;;;4958829;28;20126;-57
2021/12/01 06:20:41;;;;;;;0.75;0.60;;;8.90;99.90;;;;;;4958208;29;20091;-57
2021/12/01 06:23:06;;;;;;;1.38;0.80;;;8.80;99.90;;;;;;4958573;29;20102;-55
2021/12/01 06:25:32;;;;;;;0.35;0.35;;;8.80;99.90;;;;;;4957588;29;20070;-56
2021/12/01 06:27:58;;;;;;;0.90;0.57;;;8.80;99.90;;;;;;4958654;28;20028;-56
2021/12/01 06:30:25;;;;;;;2.05;1.10;;;8.70;99.90;;;;;;4959001;29;20027;-57
2021/12/01 06:32:51;;;;;;;0.93;0.75;;;8.70;99.90;;;;;;4958385;28;20027;-54
2021/12/01 06:35:18;;;;;;;0.75;0.60;;;8.80;99.90;;;;;;4958376;28;20074;-55
2021/12/01 06:37:44;;;;;;;0.50;0.47;;;8.80;99.90;;;;;;4958307;28;20027;-54
2021/12/01 06:40:11;;;;;;;9.77;3.42;;;8.80;99.90;;;;;;4956754;28;20035;-58
2021/12/01 06:42:37;;;;;;;1.70;0.70;;;8.80;99.90;;;;;;4956918;29;20023;-52
2021/12/01 06:45:08;;;;;;;0.43;0.43;;;8.70;99.90;;;;;;4957761;29;20027;-57
2021/12/01 06:47:33;;;;;;;0.83;0.50;;;8.80;99.90;;;;;;4958204;28;20023;-55
2021/12/01 06:49:59;;;;;;;0.30;0.30;;;8.70;99.90;;;;;;4957962;28;20031;-56
2021/12/01 06:52:28;;;;;;;0.63;0.60;;;8.60;99.90;;;;;;4956832;28;20027;-58
2021/12/01 06:54:54;;;;;;;0.95;0.75;;;8.60;99.90;;;;;;4956828;29;20134;-53
2021/12/01 06:57:20;;;;;;;0.95;0.50;;;8.70;99.90;;;;;;4956694;29;20027;-58
2021/12/01 06:59:46;;;;;;;0.88;0.43;;;8.90;99.90;;;;;;4957888;28;20039;-58
2021/12/01 07:02:11;;;;;;;1.33;0.50;;;8.90;99.90;;;;;;4957488;29;20377;-54
2021/12/01 07:04:37;;;;;;;1.02;0.57;;;8.80;99.90;;;;;;4956655;29;20019;-53
2021/12/01 07:07:03;;;;;;;1.17;0.73;;;8.70;99.90;;;;;;4957935;28;20430;-54
2021/12/01 07:09:29;;;;;;;0.80;0.50;;;8.80;99.90;;;;;;4956452;28;20446;-55
2021/12/01 07:11:54;;;;;;;0.93;0.77;;;8.70;99.90;;;;;;4957711;28;20024;-58
2021/12/01 07:14:21;;;;;;;0.90;0.60;;;8.70;99.90;;;;;;4957065;28;20034;-56
2021/12/01 07:16:47;;;;;;;1.17;0.80;;;8.70;99.90;;;;;;4957650;28;20027;-57
2021/12/01 07:19:13;;;;;;;3.05;0.70;;;8.90;99.90;;;;;;4957512;28;20050;-54
2021/12/01 07:21:38;;;;;;;1.00;0.57;;;8.80;99.90;;;;;;4957542;29;20397;-59
2021/12/01 07:24:05;;;;;;;1.15;0.88;;;8.80;99.90;;;;;;4957090;29;20062;-58
2021/12/01 07:26:31;;;;;;;1.10;0.70;;;8.80;99.90;;;;;;4956242;29;20047;-58
2021/12/01 07:28:56;;;;;;;2.05;0.80;;;8.70;99.90;;;;;;4956953;28;20039;-58
2021/12/01 07:31:22;;;;;;;1.05;0.40;;;8.80;99.90;;;;;;4957316;29;20027;-58
2021/12/01 07:33:48;;;;;;;0.40;0.40;;;9.00;99.90;;;;;;4957623;29;20110;-57
2021/12/01 07:36:15;;;;;;;0.75;0.60;;;9.00;99.90;;;;;;4957833;29;20059;-58
2021/12/01 07:38:41;;;;;;;1.23;0.50;;;8.90;99.90;;;;;;4957147;28;20067;-58
2021/12/01 07:41:06;;;;;;;0.75;0.50;;;8.90;99.90;;;;;;4957384;29;20050;-58
2021/12/01 07:43:32;;;;;;;0.85;0.60;;;8.90;99.90;;;;;;4957173;29;20027;-57
2021/12/01 07:46:00;;;;;;;1.30;0.80;;;9.00;99.90;;;;;;4956166;29;20023;-57
2021/12/01 07:48:27;;;;;;;0.80;0.60;;;8.90;99.90;;;;;;4955970;28;20620;-58
2021/12/01 07:50:53;;;;;;;2.15;0.60;;;8.90;99.90;;;;;;4956964;28;20051;-55
2021/12/01 07:53:18;;;;;;;2.63;0.60;;;8.90;99.90;;;;;;4956337;29;20102;-58
2021/12/01 07:55:44;;;;;;;1.90;0.80;;;8.90;99.90;;;;;;4956893;29;20027;-58
2021/12/01 07:58:09;;;;;;;0.85;0.70;;;8.90;99.90;;;;;;4956792;28;20027;-51
2021/12/01 08:00:35;;;;;;;0.85;0.80;;;8.90;99.90;;;;;;4955651;29;20027;-58
2021/12/01 08:03:01;;;;;;;1.05;0.90;;;8.80;99.90;;;;;;4955540;29;20024;-56
2021/12/01 08:05:26;;;;;;;1.52;0.90;;;8.80;99.90;;;;;;4955473;29;20050;-59
2021/12/01 08:07:52;;;;;;;2.97;0.77;;;8.60;99.90;;;;;;4956678;29;20548;-59
2021/12/01 08:10:18;;;;;;;1.23;0.88;;;8.60;99.90;;;;;;4956657;28;20106;-59
2021/12/01 08:12:44;;;;;;;1.95;0.90;;;8.60;99.90;;;;;;4955397;29;20126;-53
2021/12/01 08:15:10;;;;;;;1.85;1.30;;;8.60;99.90;;;;;;4955202;29;20086;-51
2021/12/01 08:17:35;;;;;;;1.85;1.42;;;8.60;99.90;;;;;;4955237;29;20050;-54
2021/12/01 08:20:01;;;;;;;1.85;1.00;;;8.60;99.90;;;;;;4956335;28;20027;-50
2021/12/01 08:22:28;;;;;;;1.23;0.77;;;8.60;99.90;;;;;;4956477;28;20027;-52
2021/12/01 08:24:57;;;;;;;1.48;1.10;;;8.60;99.90;;;;;;4954520;28;20027;-53
2021/12/01 08:27:24;;;;;;;1.30;1.05;;;8.70;99.90;;;;;;4955140;29;20027;-50
2021/12/01 08:29:50;;;;;;;2.08;1.05;;;8.70;99.90;;;;;;4955455;28;20027;-52
2021/12/01 08:32:16;;;;;;;2.13;1.10;;;8.70;99.90;;;;;;4955360;29;20027;-52
2021/12/01 08:34:44;;;;;;;3.50;1.00;;;8.80;99.90;;;;;;4954992;29;20050;-50
2021/12/01 08:37:10;;;;;;;1.33;0.90;;;8.80;99.90;;;;;;4956208;28;20027;-56
2021/12/01 08:39:36;;;;;;;1.70;1.30;;;8.80;99.90;;;;;;4955911;28;20118;-51
2021/12/01 08:42:02;;;;;;;2.42;1.00;;;8.70;99.90;;;;;;4955364;29;20055;-58
2021/12/01 08:44:28;;;;;;;1.65;0.82;;;8.60;99.90;;;;;;4956038;28;20028;-58
2021/12/01 08:46:54;;;;;;;1.27;0.90;;;8.80;99.90;;;;;;4954776;29;20023;-59
2021/12/01 08:49:20;;;;;;;1.27;0.85;;;8.70;99.90;;;;;;4956055;28;20107;-58
2021/12/01 08:51:45;;;;;;;1.77;0.90;;;8.70;99.90;;;;;;4954666;29;20114;-58
2021/12/01 08:54:13;;;;;;;1.52;0.80;;;8.70;99.90;;;;;;4955872;29;20034;-56
2021/12/01 08:56:40;;;;;;;0.65;0.65;;;8.80;99.90;;;;;;4955854;28;20105;-57
2021/12/01 08:59:06;;;;;;;0.70;0.68;;;8.80;99.90;;;;;;4954482;28;20101;-58
2021/12/01 09:01:32;;;;;;;0.88;0.70;;;8.80;99.90;;;;;;4954428;29;20023;-59
2021/12/01 09:03:57;;;;;;;1.73;0.80;;;8.80;99.90;;;;;;4955660;29;20026;-59
2021/12/01 09:06:23;;;;;;;1.17;0.70;;;8.80;99.90;;;;;;4954480;29;20019;-57
2021/12/01 09:08:49;;;;;;;0.88;0.70;;;8.70;99.90;;;;;;4954322;28;20034;-57
2021/12/01 09:11:14;;;;;;;1.73;1.00;;;8.80;99.90;;;;;;4955560;29;20387;-58
2021/12/01 09:13:40;;;;;;;0.85;0.50;;;8.80;99.90;;;;;;4954369;29;20034;-57
2021/12/01 09:16:06;;;;;;;0.60;0.43;;;8.80;99.90;;;;;;4955624;29;20023;-58
2021/12/01 09:18:33;;;;;;;0.85;0.60;;;8.90;99.90;;;;;;4954192;28;20027;-59
2021/12/01 09:21:00;;;;;;;0.95;0.70;;;8.80;99.90;;;;;;4954409;29;20023;-58
2021/12/01 09:23:26;;;;;;;2.33;0.60;;;8.90;99.90;;;;;;4954265;29;20037;-59
2021/12/01 09:25:52;;;;;;;0.60;0.50;;;8.90;99.90;;;;;;4955377;29;20027;-59
2021/12/01 09:28:22;;;;;;;1.63;0.70;;;8.90;99.90;;;;;;4954105;28;20028;-59
2021/12/01 09:30:48;;;;;;;0.88;0.63;;;9.00;99.90;;;;;;4954167;29;20114;-59
2021/12/01 09:33:15;;;;;;;0.50;0.50;;;8.90;99.90;;;;;;4954076;29;20030;-59
2021/12/01 09:35:41;;;;;;;2.90;0.52;;;8.90;99.90;;;;;;4954340;29;20117;-59
2021/12/01 09:38:08;;;;;;;1.30;0.45;;;9.00;99.90;;;;;;4953729;28;20023;-57
2021/12/01 09:40:34;;;;;;;1.05;0.50;;;8.90;99.90;;;;;;4955113;29;20042;-59
2021/12/01 09:43:00;;;;;;;0.52;0.40;;;9.00;99.90;;;;;;4953960;29;20389;-58
2021/12/01 09:45:28;;;;;;;0.47;0.47;;;9.00;99.90;;;;;;4955463;29;20059;-58
2021/12/01 09:47:54;;;;;;;0.40;0.40;;;8.90;99.90;;;;;;4953808;28;20031;-57
2021/12/01 09:50:20;;;;;;;1.25;0.60;;;8.90;99.90;;;;;;4955306;29;20034;-56
2021/12/01 09:52:46;;;;;;;3.10;0.70;;;8.90;99.90;;;;;;4955199;28;20095;-58
2021/12/01 09:55:13;;;;;;;1.38;0.63;;;9.00;99.90;;;;;;4955142;29;20027;-59
2021/12/01 09:58:11;;;;;;;0.82;0.60;;;8.90;99.90;;;;;;4954633;29;20028;-56
2021/12/01 10:00:47;;;;;;;1.02;0.47;;;8.90;99.90;;;;;;4953648;29;20043;-57
2021/12/01 10:03:13;;;;;;;0.52;0.43;;;9.00;99.90;;;;;;4954444;29;20031;-58
2021/12/01 10:06:09;;;;;;;4.05;0.50;;;9.10;99.90;;;;;;4955041;28;20110;-58
2021/12/01 10:08:38;;;;;;;2.65;0.40;;;9.20;99.90;;;;;;4953749;28;20114;-58
2021/12/01 10:11:17;;;;;;;0.73;0.52;;;9.10;99.90;;;;;;4954195;29;20023;-57
2021/12/01 10:13:45;;;;;;;1.27;0.47;;;9.00;99.90;;;;;;4954585;29;20023;-59
2021/12/01 10:16:14;;;;;;;0.30;0.30;;;9.10;99.90;;;;;;4954949;28;20034;-58
2021/12/01 10:18:46;;;;;;;0.50;0.50;;;9.10;99.90;;;;;;4953879;28;20028;-56
2021/12/01 10:21:16;;;;;;;0.52;0.40;;;9.00;99.90;;;;;;4953704;29;20023;-59
2021/12/01 10:23:48;;;;;;;0.30;0.30;;;9.00;99.90;;;;;;4953926;29;20470;-59
2021/12/01 10:26:32;;;;;;;1.67;0.40;;;9.20;99.90;;;;;;4953601;29;20093;-59
2021/12/01 10:29:08;;;;;;;0.93;0.60;;;9.10;99.90;;;;;;4954710;28;20034;-59
2021/12/01 10:31:38;;;;;;;4.57;1.33;;;9.10;99.90;;;;;;4953688;29;20116;-58
2021/12/01 10:34:31;;;;;;;0.70;0.60;;;9.10;99.90;;;;;;4953708;28;20045;-57
2021/12/01 10:37:10;;;;;;;2.28;1.10;;;9.20;99.90;;;;;;4954792;28;20038;-59
2021/12/01 10:39:38;;;;;;;0.95;0.68;;;9.20;99.90;;;;;;4954486;28;20038;-57
2021/12/01 10:42:15;;;;;;;0.28;0.28;;;9.20;99.90;;;;;;4954996;28;20106;-59
2021/12/01 10:44:58;;;;;;;1.60;0.50;;;9.30;99.90;;;;;;4954731;28;20100;-53
2021/12/01 10:47:24;;;;;;;1.50;0.50;;;9.30;99.90;;;;;;4954790;28;20019;-56
2021/12/01 10:49:50;;;;;;;1.35;0.60;;;9.30;99.90;;;;;;4956538;28;20078;-59
2021/12/01 10:52:34;;;;;;;2.97;1.02;;;9.20;99.90;;;;;;4993285;23;20030;-54
2021/12/01 10:55:05;;;;;;;0.50;0.35;;;9.20;99.90;;;;;;5036275;28;20078;-52
2021/12/01 10:57:31;;;;;;;1.13;0.82;;;9.40;99.90;;;;;;5035238;28;20164;-55
2021/12/01 10:59:56;;;;;;;0.70;0.63;;;9.40;99.90;;;;;;5035692;28;20113;-54
2021/12/01 11:02:22;;;;;;;0.98;0.57;;;9.50;99.90;;;;;;5029857;28;20018;-56
2021/12/01 11:04:50;;;;;;;0.98;0.40;;;9.40;99.90;;;;;;5015346;28;20046;-57
2021/12/01 11:07:25;;;;;;;5.18;2.28;;;9.50;99.90;;;;;;5016504;28;20030;-59
2021/12/01 11:10:21;;;;;;;1.65;0.85;;;9.40;99.90;;;;;;5016128;28;20029;-53
2021/12/01 11:12:59;;;;;;;1.88;0.77;;;9.50;99.90;;;;;;5014857;28;20026;-56
2021/12/01 11:15:34;;;;;;;2.60;0.40;;;9.40;99.90;;;;;;5015753;28;20037;-58
2021/12/01 11:18:01;;;;;;;0.38;0.30;;;9.40;99.90;;;;;;5014698;28;20075;-56
2021/12/01 11:20:44;;;;;;;3.90;2.45;;;9.60;99.90;;;;;;5015904;28;20022;-56
2021/12/01 11:23:17;;;;;;;0.80;0.50;;;9.50;99.90;;;;;;5016119;28;20026;-53
2021/12/01 11:25:46;;;;;;;2.90;0.50;;;9.50;99.90;;;;;;5014703;28;20121;-55
2021/12/01 11:28:15;;;;;;;0.60;0.50;;;9.50;99.90;;;;;;5015078;28;20029;-56
2021/12/01 11:30:44;;;;;;;0.40;0.40;;;9.60;99.90;;;;;;5015929;28;20038;-57
2021/12/01 11:33:13;;;;;;;2.47;0.93;;;9.70;99.90;;;;;;5014385;28;20037;-59
2021/12/01 11:35:39;;;;;;;2.13;1.20;;;9.80;99.90;;;;;;5015322;28;20033;-57
2021/12/01 11:38:07;;;;;;;1.65;1.10;;;9.80;99.90;;;;;;5016092;28;20030;-54
2021/12/01 11:40:32;;;;;;;1.73;1.10;;;9.90;99.90;;;;;;5014949;28;20037;-56
2021/12/01 11:42:59;;;;;;;1.95;1.23;;;9.90;99.90;;;;;;5015532;28;20021;-55
2021/12/01 11:45:25;;;;;;;0.30;0.30;;;9.90;99.90;;;;;;5014790;28;20109;-57
2021/12/01 11:47:53;;;;;;;0.38;0.38;;;10.00;99.90;;;;;;5014792;28;20018;-56
2021/12/01 11:50:33;;;;;;;1.17;0.70;;;10.00;99.90;;;;;;5015007;28;20121;-54
2021/12/01 11:53:13;;;;;;;0.50;0.40;;;10.00;99.90;;;;;;5014579;28;20034;-53
2021/12/01 11:55:57;;;;;;;1.27;0.85;;;10.00;99.90;;;;;;5014664;28;20100;-55
2021/12/01 11:58:46;;;;;;;1.80;1.00;;;10.00;99.90;;;;;;5014385;28;20093;-56
2021/12/01 12:01:21;;;;;;;3.53;1.67;;;10.10;99.90;;;;;;5015220;28;20061;-57
2021/12/01 12:04:06;;;;;;;5.35;1.95;;;10.10;99.90;;;;;;5015182;28;20022;-57
2021/12/01 12:06:35;;;;;;;1.17;0.60;;;10.10;99.90;;;;;;4974543;28;20030;-52
2021/12/01 12:09:08;;;;;;;2.60;1.55;;;10.10;99.90;;;;;;5013759;28;20030;-57
2021/12/01 12:11:48;;;;;;;2.42;1.55;;;10.20;99.90;;;;;;5013735;28;20029;-51
2021/12/01 12:14:27;;;;;;;2.60;1.30;;;10.20;99.90;;;;;;5013713;28;20029;-54
2021/12/01 12:17:12;;;;;;;3.70;1.65;;;10.30;99.90;;;;;;5015132;28;20115;-54
2021/12/01 12:19:48;;;;;;;5.70;1.50;;;10.40;99.90;;;;;;5013445;28;20545;-54
2021/12/01 12:22:20;;;;;;;5.47;2.30;;;10.40;99.90;;;;;;5013421;28;20022;-54
2021/12/01 12:24:53;;;;;;;9.30;1.70;;;10.40;99.90;;;;;;5013644;28;20113;-51
2021/12/01 12:27:36;;;;;;;3.53;1.20;;;10.50;99.90;;;;;;5015094;28;20022;-52
2021/12/01 12:30:33;;;;;;;7.55;2.17;;;10.50;99.90;;;;;;5013512;28;20022;-53
2021/12/01 12:33:26;;;;;;;3.22;1.40;;;10.60;99.90;;;;;;5009496;28;20125;-57
2021/12/01 12:35:57;;;;;;;9.52;3.47;;;10.60;99.90;;;;;;5014620;28;20025;-56
2021/12/01 12:38:23;;;;;;;4.57;1.83;;;10.60;99.90;;;;;;5013266;28;20057;-56
2021/12/01 12:41:06;;;;;;;2.97;1.30;;;10.60;99.90;;;;;;5014553;28;20026;-57
2021/12/01 12:43:32;;;;;;;0.75;0.40;;;10.60;99.90;;;;;;5014436;28;20018;-60
2021/12/01 12:46:17;;;;;;;3.20;1.17;;;10.50;99.90;;;;;;5014777;28;20028;-55
2021/12/01 12:48:49;;;;;;;1.95;1.27;;;10.50;99.90;;;;;;5013980;28;20030;-53
2021/12/01 12:51:25;;;;;;;5.55;2.92;;;10.50;99.90;;;;;;5014049;28;20060;-55
2021/12/01 12:54:00;;;;;;;5.13;3.50;;;10.50;99.90;;;;;;5014834;28;20034;-59
2021/12/01 12:56:27;;;;;;;5.40;2.10;;;10.40;99.90;;;;;;5014225;28;20022;-55
2021/12/01 12:59:19;;;;;;;2.90;0.88;;;10.40;99.90;;;;;;5012865;28;20026;-58
2021/12/01 13:01:45;;;;;;;0.63;0.63;;;10.40;99.90;;;;;;5014241;28;20089;-56
2021/12/01 13:07:35;;;;;;;1.67;0.93;;;10.40;99.90;;;;;;5014304;28;20026;-58
2021/12/01 13:10:17;;;;;;;0.20;0.20;;;10.40;99.90;;;;;;5012842;28;20483;-57
2021/12/01 13:12:51;;;;;;;0.52;0.30;;;10.30;99.90;;;;;;5013451;28;20029;-57